METAR Data
IDs: Format: Raw Decoded Include TAF

Data at: 0406 UTC 27 Jan 2021

KOXC 270351Z AUTO 08005KT 7SM -SN SCT010 OVC025 M03/M03 A2984 RMK AO2 SLP125 P0000 T10281028 FZRANO
KOXC 270327Z AUTO 08006KT 3SM -SN BR FEW019 OVC028 M03/M03 A2984 RMK AO2 P0000 FZRANO
KOXC 270320Z AUTO 07008KT 2 1/2SM -SN BR FEW019 OVC028 M03/M03 A2984 RMK AO2 P0000 FZRANO
KOXC 270313Z AUTO 07008KT 3SM -SN BR FEW013 OVC028 M03/M03 A2984 RMK AO2 P0000 FZRANO
KOXC 270259Z AUTO 06009KT 2SM -SN BR BKN015 OVC026 M03/M03 A2985 RMK AO2 P0000 FZRANO
KOXC 270249Z AUTO 07008KT 3SM -SN BR OVC016 M03/M03 A2985 RMK AO2 SLP129 P0000 60001 T10331033 58009 FZRANO
KOXC 270248Z AUTO 06008KT 3SM -SN BR OVC016 M03/M03 A2985 RMK AO2 P0000 FZRANO
KOXC 270238Z AUTO 06008KT 1 1/2SM -SN BR OVC018 M03/M03 A2986 RMK AO2 P0000 FZRANO
KOXC 270219Z AUTO 06009KT 2 1/2SM -SN BR SCT012 BKN020 OVC027 M03/M03 A2986 RMK AO2 P0000 FZRANO
KOXC 270151Z 06010G15KT 4SM -SN BR FEW007 BKN014 OVC020 M03/M03 A2987 RMK AO2 SLP135 P0000 T10281033
KOXC 270149Z 06012G15KT 4SM -SN BR FEW007 BKN014 OVC020 M03/M03 A2987 RMK AO2 P0000
KOXC 270142Z 06011G15KT 3SM -SN BR SCT007 SCT014 OVC020 M03/M03 A2987 RMK AO2 P0000
KOXC 270129Z 06010KT 3SM -SN BR FEW009 BKN014 OVC025 M03/M03 A2988 RMK AO2 P0000
KOXC 270058Z 05010G14KT 2 1/2SM -SN BR FEW005 BKN013 OVC020 M03/M03 A2988 RMK AO2 P0000
KOXC 270051Z 08009KT 1 3/4SM -SN BR FEW005 BKN011 OVC019 M03/M03 A2988 RMK AO2 SLP139 P0001 T10331033
KOXC 270036Z 06007KT 1 3/4SM -SN BR FEW005 BKN014 OVC031 M03/M03 A2988 RMK AO2 P0001
KOXC 270006Z 06008KT 1 3/4SM -SN BR FEW019 OVC033 M03/M03 A2990 RMK AO2 P0001
KOXC 262358Z 06008KT 2 1/2SM -SN BR SCT019 OVC033 M03/M03 A2990 RMK AO2 P0001
KOXC 262351Z 05011KT 1 3/4SM -SN BR BKN019 OVC035 M03/M03 A2990 RMK AO2 SLP147 P0000 60006 T10331033 11022 21039 53002
KOXC 262341Z 05010G15KT 1 3/4SM -SN BR BKN015 OVC020 M03/M03 A2990 RMK AO2 P0000
KOXC 262304Z 07008KT 1 1/2SM -SN BR BKN013 OVC018 M03/M03 A2990 RMK AO2 P0000
KOXC 262254Z VRB06KT 2SM -SN BR FEW007 BKN013 OVC018 M03/M03 A2990 RMK AO2 P0000
KOXC 262251Z 06008KT 3SM -SN BR FEW010 BKN013 OVC018 M03/M03 A2990 RMK AO2 SLP148 P0002 T10331033
KOXC 262156Z 06007KT 7SM -SN FEW007 BKN012 OVC021 M03/M04 A2989 RMK AO2 P0000
KOXC 262151Z VRB05KT 2 1/2SM -SN BR BKN012 OVC025 M03/M04 A2989 RMK AO2 SLP141 P0000 T10331039
KOXC 262134Z 08006KT 2 1/2SM -SN BR SCT009 BKN012 OVC035 M03/M04 A2989 RMK AO2 P0000
KOXC 262126Z 07008KT 2 1/2SM -SN BR FEW007 BKN029 OVC037 M04/M04 A2989 RMK AO2 P0000
KOXC 262051Z 07007KT 2 1/2SM -SN BR FEW007 OVC039 M03/M04 A2990 RMK AO2 SLP145 P0001 60004 T10331039 56026
KOXC 261953Z 07007KT 3SM -SN BR FEW007 SCT021 OVC044 M03/M04 A2993 RMK AO2 P0000
KOXC 261951Z 06007KT 1 1/4SM -SN BR SCT013 BKN021 OVC032 M03/M04 A2992 RMK AO2 SLP154 P0002 T10331039
KOXC 261851Z 08006KT 1 1/4SM -SN BR SCT017 BKN021 OVC035 M03/M04 A2993 RMK AO2 SLP157 P0001 T10331044
KOXC 261751Z 12004KT 2SM -SN BR FEW015 BKN033 OVC050 M02/M08 A2997 RMK AO2 SNB12 SLP171 P0000 60000 T10221078 11017 21039 58020
KOXC 261651Z 08008KT 10SM OVC050 M02/M09 A2999 RMK AO2 SLP177 T10221089
KOXC 261551Z 08006KT 10SM OVC095 M02/M08 A3002 RMK AO2 SLP187 T10171083
KOXC 261451Z 05008KT 10SM OVC080 M02/M09 A3004 RMK AO2 SLP191 T10221089 53007
KOXC 261351Z 08008KT 10SM OVC100 M03/M09 A3001 RMK AO2 SLP185 T10331089
KOXC 261251Z 08009KT 10SM OVC100 M04/M09 A3001 RMK AO2 SLP185 T10391094
KOXC 261151Z 07011G14KT 10SM OVC110 M04/M09 A3001 RMK AO2 SLP185 T10391094 11028 21039 55005
KOXC 261051Z AUTO 07006KT 10SM OVC110 M03/M09 A3000 RMK AO2 SLP181 T10331094 FZRANO
KOXC 260951Z AUTO 04004KT 10SM OVC120 M03/M09 A3003 RMK AO2 SLP188 T10331094 FZRANO
KOXC 260851Z AUTO 02004KT 10SM OVC120 M03/M09 A3003 RMK AO2 SLP188 T10331089 58014 FZRANO
KOXC 260751Z AUTO 00000KT 10SM SCT110 M03/M09 A3005 RMK AO2 SLP197 T10331094 FZRANO
KOXC 260651Z AUTO 00000KT 10SM FEW120 M03/M09 A3006 RMK AO2 SLP200 T10281094 FZRANO
KOXC 260551Z AUTO 33004KT 10SM BKN110 M03/M10 A3007 RMK AO2 SLP204 T10281100 11028 21044 55003 FZRANO
KOXC 260451Z AUTO 03008KT 10SM CLR M03/M10 A3005 RMK AO2 SLP196 T10281100 400061089 FZRANO
KOXC 260251Z AUTO 01011KT 10SM CLR M03/M11 A3008 RMK AO2 SLP207 T10281106 55001 FZRANO
KOXC 260151Z 36009KT 10SM CLR M03/M11 A3007 RMK AO2 SLP205 T10281106
KOXC 260051Z 36009KT 10SM CLR M03/M11 A3006 RMK AO2 SLP205 T10331106
KOXC 242351Z 32010G15KT 10SM CLR M05/M18 A3006 RMK AO2 SLP204 T10501183 11022 21050 53005
KOXC 252251Z 31004KT 10SM CLR M02/M11 A3005 RMK AO2 SLP200 T10221106
KOXC 252151Z 33006KT 10SM CLR M02/M11 A3003 RMK AO2 SLP193 T10171106
KOXC 252051Z 31007KT 10SM CLR M01/M11 A3004 RMK AO2 SLP196 T10061111 53004
KOXC 251951Z VRB06KT 10SM CLR 01/M13 A3003 RMK AO2 SLP192 T00061128
KOXC 251851Z 30008KT 10SM CLR 01/M13 A3002 RMK AO2 SLP188 T00061128
KOXC 251751Z 33008KT 10SM CLR 01/M12 A3003 RMK AO2 SLP190 T00061122 10006 21089 56020
KOXC 251651Z 30007KT 10SM CLR M01/M11 A3004 RMK AO2 SLP196 T10111111